sensor_id;sensor_type;location;lat;lon;timestamp;temperature;humidity
4813;DHT22;2420;51.202;8.698;2023-04-26T00:01:29;2.20;1.00
4813;DHT22;2420;51.202;8.698;2023-04-26T00:03:55;2.00;1.00
4813;DHT22;2420;51.202;8.698;2023-04-26T00:06:21;2.20;1.00
4813;DHT22;2420;51.202;8.698;2023-04-26T00:08:47;2.00;1.00
4813;DHT22;2420;51.202;8.698;2023-04-26T00:11:12;2.00;1.00
4813;DHT22;2420;51.202;8.698;2023-04-26T00:13:38;1.90;1.00
4813;DHT22;2420;51.202;8.698;2023-04-26T00:16:04;1.80;1.00
4813;DHT22;2420;51.202;8.698;2023-04-26T00:18:30;1.90;1.00
4813;DHT22;2420;51.202;8.698;2023-04-26T00:20:56;1.90;1.00
4813;DHT22;2420;51.202;8.698;2023-04-26T00:23:21;1.90;1.00
4813;DHT22;2420;51.202;8.698;2023-04-26T00:25:47;1.70;1.00
4813;DHT22;2420;51.202;8.698;2023-04-26T00:28:12;1.90;1.00
4813;DHT22;2420;51.202;8.698;2023-04-26T00:30:38;2.10;1.00
4813;DHT22;2420;51.202;8.698;2023-04-26T00:33:11;2.20;1.00
4813;DHT22;2420;51.202;8.698;2023-04-26T00:35:37;2.00;1.00
4813;DHT22;2420;51.202;8.698;2023-04-26T00:38:02;2.00;1.00
4813;DHT22;2420;51.202;8.698;2023-04-26T00:40:29;1.90;1.00
4813;DHT22;2420;51.202;8.698;2023-04-26T00:42:58;2.00;1.00
4813;DHT22;2420;51.202;8.698;2023-04-26T00:45:23;1.90;1.00
4813;DHT22;2420;51.202;8.698;2023-04-26T00:47:49;1.80;1.00
4813;DHT22;2420;51.202;8.698;2023-04-26T00:50:15;1.80;1.00
4813;DHT22;2420;51.202;8.698;2023-04-26T00:52:42;1.80;1.00
4813;DHT22;2420;51.202;8.698;2023-04-26T00:55:08;1.80;1.00
4813;DHT22;2420;51.202;8.698;2023-04-26T00:57:36;1.80;1.00
4813;DHT22;2420;51.202;8.698;2023-04-26T01:00:02;1.60;1.00
4813;DHT22;2420;51.202;8.698;2023-04-26T01:02:28;1.50;1.00
4813;DHT22;2420;51.202;8.698;2023-04-26T01:04:53;1.40;1.00
4813;DHT22;2420;51.202;8.698;2023-04-26T01:07:19;1.20;1.00
4813;DHT22;2420;51.202;8.698;2023-04-26T01:09:46;1.40;1.00
4813;DHT22;2420;51.202;8.698;2023-04-26T01:12:13;1.30;1.00
4813;DHT22;2420;51.202;8.698;2023-04-26T01:14:39;1.20;1.00
4813;DHT22;2420;51.202;8.698;2023-04-26T01:17:04;1.30;1.00
4813;DHT22;2420;51.202;8.698;2023-04-26T01:19:30;1.40;1.00
4813;DHT22;2420;51.202;8.698;2023-04-26T01:21:56;1.30;1.00
4813;DHT22;2420;51.202;8.698;2023-04-26T01:24:22;1.30;1.00
4813;DHT22;2420;51.202;8.698;2023-04-26T01:26:48;1.40;1.00
4813;DHT22;2420;51.202;8.698;2023-04-26T01:29:15;1.50;1.00
4813;DHT22;2420;51.202;8.698;2023-04-26T01:31:41;1.40;1.00
4813;DHT22;2420;51.202;8.698;2023-04-26T01:34:07;1.40;1.00
4813;DHT22;2420;51.202;8.698;2023-04-26T01:36:32;1.30;1.00
4813;DHT22;2420;51.202;8.698;2023-04-26T01:38:58;1.20;1.00
4813;DHT22;2420;51.202;8.698;2023-04-26T01:41:23;1.30;1.00
4813;DHT22;2420;51.202;8.698;2023-04-26T01:43:49;1.10;1.00
4813;DHT22;2420;51.202;8.698;2023-04-26T01:46:14;1.20;1.00
4813;DHT22;2420;51.202;8.698;2023-04-26T01:48:40;1.10;1.00
4813;DHT22;2420;51.202;8.698;2023-04-26T01:51:06;1.10;1.00
4813;DHT22;2420;51.202;8.698;2023-04-26T01:53:31;1.00;1.00
4813;DHT22;2420;51.202;8.698;2023-04-26T01:56:00;1.10;1.00
4813;DHT22;2420;51.202;8.698;2023-04-26T01:58:28;1.20;1.00
4813;DHT22;2420;51.202;8.698;2023-04-26T02:00:53;1.20;1.00
4813;DHT22;2420;51.202;8.698;2023-04-26T02:03:19;0.80;1.00
4813;DHT22;2420;51.202;8.698;2023-04-26T02:05:45;0.90;1.00
4813;DHT22;2420;51.202;8.698;2023-04-26T02:08:11;1.00;1.00
4813;DHT22;2420;51.202;8.698;2023-04-26T02:10:36;0.90;1.00
4813;DHT22;2420;51.202;8.698;2023-04-26T02:13:02;0.90;1.00
4813;DHT22;2420;51.202;8.698;2023-04-26T02:15:28;0.90;1.00
4813;DHT22;2420;51.202;8.698;2023-04-26T02:17:53;0.60;1.00
4813;DHT22;2420;51.202;8.698;2023-04-26T02:20:20;0.80;1.00
4813;DHT22;2420;51.202;8.698;2023-04-26T02:22:45;0.90;1.00
4813;DHT22;2420;51.202;8.698;2023-04-26T02:25:11;0.90;1.00
4813;DHT22;2420;51.202;8.698;2023-04-26T02:27:37;0.90;1.00
4813;DHT22;2420;51.202;8.698;2023-04-26T02:30:03;0.70;1.00
4813;DHT22;2420;51.202;8.698;2023-04-26T02:32:29;0.90;1.00
4813;DHT22;2420;51.202;8.698;2023-04-26T02:34:55;1.10;1.00
4813;DHT22;2420;51.202;8.698;2023-04-26T02:37:20;0.80;1.00
4813;DHT22;2420;51.202;8.698;2023-04-26T02:39:51;0.80;1.00
4813;DHT22;2420;51.202;8.698;2023-04-26T02:42:17;0.80;1.00
4813;DHT22;2420;51.202;8.698;2023-04-26T02:44:43;0.60;1.00
4813;DHT22;2420;51.202;8.698;2023-04-26T02:47:10;0.60;1.00
4813;DHT22;2420;51.202;8.698;2023-04-26T02:49:35;0.50;1.00
4813;DHT22;2420;51.202;8.698;2023-04-26T02:52:01;0.40;1.00
4813;DHT22;2420;51.202;8.698;2023-04-26T02:54:26;0.40;1.00
4813;DHT22;2420;51.202;8.698;2023-04-26T02:56:52;0.50;1.00
4813;DHT22;2420;51.202;8.698;2023-04-26T02:59:19;0.50;1.00
4813;DHT22;2420;51.202;8.698;2023-04-26T03:01:45;0.50;1.00
4813;DHT22;2420;51.202;8.698;2023-04-26T03:04:10;0.50;1.00
4813;DHT22;2420;51.202;8.698;2023-04-26T03:06:36;0.70;1.00
4813;DHT22;2420;51.202;8.698;2023-04-26T03:09:01;0.60;1.00
4813;DHT22;2420;51.202;8.698;2023-04-26T03:11:27;0.70;1.00
4813;DHT22;2420;51.202;8.698;2023-04-26T03:13:52;0.70;1.00
4813;DHT22;2420;51.202;8.698;2023-04-26T03:16:19;0.70;1.00
4813;DHT22;2420;51.202;8.698;2023-04-26T03:18:47;0.60;1.00
4813;DHT22;2420;51.202;8.698;2023-04-26T03:21:13;0.80;1.00
4813;DHT22;2420;51.202;8.698;2023-04-26T03:23:38;0.80;1.00
4813;DHT22;2420;51.202;8.698;2023-04-26T03:26:04;0.80;1.00
4813;DHT22;2420;51.202;8.698;2023-04-26T03:28:29;0.50;1.00
4813;DHT22;2420;51.202;8.698;2023-04-26T03:30:55;0.70;1.00
4813;DHT22;2420;51.202;8.698;2023-04-26T03:33:21;0.50;1.00
4813;DHT22;2420;51.202;8.698;2023-04-26T03:35:47;0.50;1.00
4813;DHT22;2420;51.202;8.698;2023-04-26T03:38:12;0.60;1.00
4813;DHT22;2420;51.202;8.698;2023-04-26T03:40:38;0.50;1.00
4813;DHT22;2420;51.202;8.698;2023-04-26T03:43:04;0.40;1.00
4813;DHT22;2420;51.202;8.698;2023-04-26T03:45:29;0.70;1.00
4813;DHT22;2420;51.202;8.698;2023-04-26T03:47:55;0.60;1.00
4813;DHT22;2420;51.202;8.698;2023-04-26T03:50:21;0.40;1.00
4813;DHT22;2420;51.202;8.698;2023-04-26T03:52:47;0.30;1.00
4813;DHT22;2420;51.202;8.698;2023-04-26T03:55:12;0.30;1.00
4813;DHT22;2420;51.202;8.698;2023-04-26T03:57:38;0.50;1.00
4813;DHT22;2420;51.202;8.698;2023-04-26T04:00:04;0.30;1.00
4813;DHT22;2420;51.202;8.698;2023-04-26T04:02:39;0.50;1.00
4813;DHT22;2420;51.202;8.698;2023-04-26T04:05:05;0.20;1.00
4813;DHT22;2420;51.202;8.698;2023-04-26T04:07:30;0.20;1.00
4813;DHT22;2420;51.202;8.698;2023-04-26T04:09:57;0.10;1.00
4813;DHT22;2420;51.202;8.698;2023-04-26T04:12:23;0.20;1.00
4813;DHT22;2420;51.202;8.698;2023-04-26T04:14:49;0.30;1.00
4813;DHT22;2420;51.202;8.698;2023-04-26T04:17:15;0.30;1.00
4813;DHT22;2420;51.202;8.698;2023-04-26T04:19:41;0.10;1.00
4813;DHT22;2420;51.202;8.698;2023-04-26T04:22:06;0.30;1.00
4813;DHT22;2420;51.202;8.698;2023-04-26T04:24:32;0.30;1.00
4813;DHT22;2420;51.202;8.698;2023-04-26T04:26:57;0.30;1.00
4813;DHT22;2420;51.202;8.698;2023-04-26T04:29:23;0.30;1.00
4813;DHT22;2420;51.202;8.698;2023-04-26T04:31:49;0.20;1.00
4813;DHT22;2420;51.202;8.698;2023-04-26T04:34:15;0.20;1.00
4813;DHT22;2420;51.202;8.698;2023-04-26T04:36:40;0.20;1.00
4813;DHT22;2420;51.202;8.698;2023-04-26T04:39:06;0.30;1.00
4813;DHT22;2420;51.202;8.698;2023-04-26T04:41:36;0.30;1.00
4813;DHT22;2420;51.202;8.698;2023-04-26T04:44:02;0.20;1.00
4813;DHT22;2420;51.202;8.698;2023-04-26T04:46:28;0.20;1.00
4813;DHT22;2420;51.202;8.698;2023-04-26T04:48:54;0.30;1.00
4813;DHT22;2420;51.202;8.698;2023-04-26T04:51:19;0.40;1.00
4813;DHT22;2420;51.202;8.698;2023-04-26T04:53:45;0.40;1.00
4813;DHT22;2420;51.202;8.698;2023-04-26T04:56:11;0.50;1.00
4813;DHT22;2420;51.202;8.698;2023-04-26T04:58:36;0.40;1.00
4813;DHT22;2420;51.202;8.698;2023-04-26T05:01:02;0.50;1.00
4813;DHT22;2420;51.202;8.698;2023-04-26T05:03:28;0.20;1.00
4813;DHT22;2420;51.202;8.698;2023-04-26T05:05:53;0.50;1.00
4813;DHT22;2420;51.202;8.698;2023-04-26T05:08:19;0.50;1.00
4813;DHT22;2420;51.202;8.698;2023-04-26T05:10:44;0.30;1.00
4813;DHT22;2420;51.202;8.698;2023-04-26T05:13:10;0.50;1.00
4813;DHT22;2420;51.202;8.698;2023-04-26T05:15:37;0.40;1.00
4813;DHT22;2420;51.202;8.698;2023-04-26T05:18:02;0.50;1.00
4813;DHT22;2420;51.202;8.698;2023-04-26T05:20:28;0.60;1.00
4813;DHT22;2420;51.202;8.698;2023-04-26T05:22:54;0.70;1.00
4813;DHT22;2420;51.202;8.698;2023-04-26T05:25:19;0.50;1.00
4813;DHT22;2420;51.202;8.698;2023-04-26T05:27:45;0.70;1.00
4813;DHT22;2420;51.202;8.698;2023-04-26T05:30:11;0.60;1.00
4813;DHT22;2420;51.202;8.698;2023-04-26T05:32:37;0.60;1.00
4813;DHT22;2420;51.202;8.698;2023-04-26T05:35:03;0.50;1.00
4813;DHT22;2420;51.202;8.698;2023-04-26T05:37:29;0.80;1.00
4813;DHT22;2420;51.202;8.698;2023-04-26T05:39:56;0.90;1.00
4813;DHT22;2420;51.202;8.698;2023-04-26T05:42:21;1.00;1.00
4813;DHT22;2420;51.202;8.698;2023-04-26T05:44:47;0.90;1.00
4813;DHT22;2420;51.202;8.698;2023-04-26T05:47:12;1.20;1.00
4813;DHT22;2420;51.202;8.698;2023-04-26T05:49:38;1.10;1.00
4813;DHT22;2420;51.202;8.698;2023-04-26T05:52:04;1.20;1.00
4813;DHT22;2420;51.202;8.698;2023-04-26T05:54:29;1.20;1.00
4813;DHT22;2420;51.202;8.698;2023-04-26T05:56:55;1.60;1.00
4813;DHT22;2420;51.202;8.698;2023-04-26T05:59:20;1.60;1.00
4813;DHT22;2420;51.202;8.698;2023-04-26T06:01:46;1.60;1.00
4813;DHT22;2420;51.202;8.698;2023-04-26T06:04:12;1.80;1.00
4813;DHT22;2420;51.202;8.698;2023-04-26T06:06:37;2.10;1.00
4813;DHT22;2420;51.202;8.698;2023-04-26T06:09:03;2.30;1.00
4813;DHT22;2420;51.202;8.698;2023-04-26T06:11:29;2.30;1.00
4813;DHT22;2420;51.202;8.698;2023-04-26T06:13:54;2.50;1.00
4813;DHT22;2420;51.202;8.698;2023-04-26T06:16:21;2.60;1.00
4813;DHT22;2420;51.202;8.698;2023-04-26T06:18:46;2.80;1.00
4813;DHT22;2420;51.202;8.698;2023-04-26T06:21:12;3.20;1.00
4813;DHT22;2420;51.202;8.698;2023-04-26T06:23:37;3.20;1.00
4813;DHT22;2420;51.202;8.698;2023-04-26T06:26:03;3.40;1.00
4813;DHT22;2420;51.202;8.698;2023-04-26T06:28:28;3.50;1.00
4813;DHT22;2420;51.202;8.698;2023-04-26T06:30:54;3.70;1.00
4813;DHT22;2420;51.202;8.698;2023-04-26T06:33:20;3.60;1.00
4813;DHT22;2420;51.202;8.698;2023-04-26T06:35:45;3.80;1.00
4813;DHT22;2420;51.202;8.698;2023-04-26T06:38:11;3.80;1.00
4813;DHT22;2420;51.202;8.698;2023-04-26T06:40:37;3.80;1.00
4813;DHT22;2420;51.202;8.698;2023-04-26T06:43:02;3.80;1.00
4813;DHT22;2420;51.202;8.698;2023-04-26T06:45:28;3.90;1.00
4813;DHT22;2420;51.202;8.698;2023-04-26T06:47:54;4.00;1.00
4813;DHT22;2420;51.202;8.698;2023-04-26T06:50:19;3.80;1.00
4813;DHT22;2420;51.202;8.698;2023-04-26T06:52:45;3.70;1.00
4813;DHT22;2420;51.202;8.698;2023-04-26T06:55:10;3.90;1.00
4813;DHT22;2420;51.202;8.698;2023-04-26T06:57:36;3.90;1.00
4813;DHT22;2420;51.202;8.698;2023-04-26T07:00:02;3.90;1.00
4813;DHT22;2420;51.202;8.698;2023-04-26T07:02:29;4.20;1.00
4813;DHT22;2420;51.202;8.698;2023-04-26T07:04:54;4.10;1.00
4813;DHT22;2420;51.202;8.698;2023-04-26T07:07:20;4.30;1.00
4813;DHT22;2420;51.202;8.698;2023-04-26T07:09:46;4.60;1.00
4813;DHT22;2420;51.202;8.698;2023-04-26T07:12:12;4.60;1.00
4813;DHT22;2420;51.202;8.698;2023-04-26T07:14:38;4.50;1.00
4813;DHT22;2420;51.202;8.698;2023-04-26T07:17:10;4.70;1.00
4813;DHT22;2420;51.202;8.698;2023-04-26T07:19:36;4.50;1.00
4813;DHT22;2420;51.202;8.698;2023-04-26T07:22:02;4.60;1.00
4813;DHT22;2420;51.202;8.698;2023-04-26T07:24:28;4.40;1.00
4813;DHT22;2420;51.202;8.698;2023-04-26T07:26:55;4.40;1.00
4813;DHT22;2420;51.202;8.698;2023-04-26T07:29:21;4.50;1.00
4813;DHT22;2420;51.202;8.698;2023-04-26T07:31:47;4.50;1.00
4813;DHT22;2420;51.202;8.698;2023-04-26T07:34:13;4.40;1.00
4813;DHT22;2420;51.202;8.698;2023-04-26T07:36:39;4.50;1.00
4813;DHT22;2420;51.202;8.698;2023-04-26T07:39:04;4.50;1.00
4813;DHT22;2420;51.202;8.698;2023-04-26T07:41:31;4.60;1.00
4813;DHT22;2420;51.202;8.698;2023-04-26T07:43:56;4.50;1.00
4813;DHT22;2420;51.202;8.698;2023-04-26T07:46:22;5.10;1.00
4813;DHT22;2420;51.202;8.698;2023-04-26T07:48:47;5.10;1.00
4813;DHT22;2420;51.202;8.698;2023-04-26T07:51:13;5.40;1.00
4813;DHT22;2420;51.202;8.698;2023-04-26T07:53:40;5.50;1.00
4813;DHT22;2420;51.202;8.698;2023-04-26T07:56:07;5.70;1.00
4813;DHT22;2420;51.202;8.698;2023-04-26T07:58:35;5.80;1.00
4813;DHT22;2420;51.202;8.698;2023-04-26T08:01:03;6.00;1.00
4813;DHT22;2420;51.202;8.698;2023-04-26T08:03:29;6.00;1.00
4813;DHT22;2420;51.202;8.698;2023-04-26T08:05:54;5.90;1.00
4813;DHT22;2420;51.202;8.698;2023-04-26T08:08:25;6.00;1.00
4813;DHT22;2420;51.202;8.698;2023-04-26T08:10:51;6.10;1.00
4813;DHT22;2420;51.202;8.698;2023-04-26T08:13:17;6.00;1.00
4813;DHT22;2420;51.202;8.698;2023-04-26T08:15:43;5.60;1.00
4813;DHT22;2420;51.202;8.698;2023-04-26T08:18:08;5.80;1.00
4813;DHT22;2420;51.202;8.698;2023-04-26T08:20:36;5.50;1.00
4813;DHT22;2420;51.202;8.698;2023-04-26T08:23:02;5.60;1.00
4813;DHT22;2420;51.202;8.698;2023-04-26T08:25:28;5.50;1.00
4813;DHT22;2420;51.202;8.698;2023-04-26T08:27:53;5.70;1.00
4813;DHT22;2420;51.202;8.698;2023-04-26T08:30:19;5.90;1.00
4813;DHT22;2420;51.202;8.698;2023-04-26T08:32:45;5.50;1.00
4813;DHT22;2420;51.202;8.698;2023-04-26T08:35:11;5.80;1.00
4813;DHT22;2420;51.202;8.698;2023-04-26T08:37:37;5.80;1.00
4813;DHT22;2420;51.202;8.698;2023-04-26T08:40:07;5.70;1.00
4813;DHT22;2420;51.202;8.698;2023-04-26T08:42:40;5.50;1.00
4813;DHT22;2420;51.202;8.698;2023-04-26T08:45:09;5.70;1.00
4813;DHT22;2420;51.202;8.698;2023-04-26T08:47:51;5.60;1.00
4813;DHT22;2420;51.202;8.698;2023-04-26T08:50:22;5.60;1.00
4813;DHT22;2420;51.202;8.698;2023-04-26T08:52:49;5.60;1.00
4813;DHT22;2420;51.202;8.698;2023-04-26T08:55:16;5.60;1.00
4813;DHT22;2420;51.202;8.698;2023-04-26T08:57:45;5.70;1.00
4813;DHT22;2420;51.202;8.698;2023-04-26T09:00:12;5.90;1.00
4813;DHT22;2420;51.202;8.698;2023-04-26T09:02:47;6.00;1.00
4813;DHT22;2420;51.202;8.698;2023-04-26T09:05:12;6.00;1.00
4813;DHT22;2420;51.202;8.698;2023-04-26T09:07:45;6.20;1.00
4813;DHT22;2420;51.202;8.698;2023-04-26T09:10:12;6.00;1.00
4813;DHT22;2420;51.202;8.698;2023-04-26T09:12:38;5.60;1.00
4813;DHT22;2420;51.202;8.698;2023-04-26T09:15:05;6.00;1.00
4813;DHT22;2420;51.202;8.698;2023-04-26T09:17:38;6.20;1.00
4813;DHT22;2420;51.202;8.698;2023-04-26T09:20:24;6.40;1.00
4813;DHT22;2420;51.202;8.698;2023-04-26T09:23:12;6.80;1.00
4813;DHT22;2420;51.202;8.698;2023-04-26T09:25:37;6.90;1.00
4813;DHT22;2420;51.202;8.698;2023-04-26T09:28:03;6.90;1.00
4813;DHT22;2420;51.202;8.698;2023-04-26T09:30:42;6.90;1.00
4813;DHT22;2420;51.202;8.698;2023-04-26T09:33:08;6.90;1.00
4813;DHT22;2420;51.202;8.698;2023-04-26T09:35:35;6.80;1.00
4813;DHT22;2420;51.202;8.698;2023-04-26T09:38:06;6.80;1.00
4813;DHT22;2420;51.202;8.698;2023-04-26T09:40:33;6.70;1.00
4813;DHT22;2420;51.202;8.698;2023-04-26T09:48:26;6.70;1.00
4813;DHT22;2420;51.202;8.698;2023-04-26T09:50:56;6.50;1.00
4813;DHT22;2420;51.202;8.698;2023-04-26T09:53:35;6.60;1.00
4813;DHT22;2420;51.202;8.698;2023-04-26T09:56:10;6.60;1.00
4813;DHT22;2420;51.202;8.698;2023-04-26T10:01:22;6.60;1.00
4813;DHT22;2420;51.202;8.698;2023-04-26T10:03:48;6.60;1.00
4813;DHT22;2420;51.202;8.698;2023-04-26T10:06:15;6.60;1.00
4813;DHT22;2420;51.202;8.698;2023-04-26T10:08:41;6.70;1.00
4813;DHT22;2420;51.202;8.698;2023-04-26T10:11:07;6.90;1.00
4813;DHT22;2420;51.202;8.698;2023-04-26T10:13:35;7.00;1.00
4813;DHT22;2420;51.202;8.698;2023-04-26T10:16:02;7.10;1.00
4813;DHT22;2420;51.202;8.698;2023-04-26T10:18:29;7.20;1.00
4813;DHT22;2420;51.202;8.698;2023-04-26T10:20:59;7.30;1.00
4813;DHT22;2420;51.202;8.698;2023-04-26T10:23:25;7.20;1.00
4813;DHT22;2420;51.202;8.698;2023-04-26T10:25:52;7.30;1.00
4813;DHT22;2420;51.202;8.698;2023-04-26T10:31:09;7.20;1.00
4813;DHT22;2420;51.202;8.698;2023-04-26T10:33:35;7.30;1.00
4813;DHT22;2420;51.202;8.698;2023-04-26T10:36:10;7.40;1.00
4813;DHT22;2420;51.202;8.698;2023-04-26T10:38:38;7.40;1.00
4813;DHT22;2420;51.202;8.698;2023-04-26T10:43:59;7.50;1.00
4813;DHT22;2420;51.202;8.698;2023-04-26T10:46:34;7.50;1.00
4813;DHT22;2420;51.202;8.698;2023-04-26T10:49:15;7.40;1.00
4813;DHT22;2420;51.202;8.698;2023-04-26T10:52:08;7.50;1.00
4813;DHT22;2420;51.202;8.698;2023-04-26T10:55:07;7.60;1.00
4813;DHT22;2420;51.202;8.698;2023-04-26T10:57:51;7.40;1.00
4813;DHT22;2420;51.202;8.698;2023-04-26T11:00:17;7.40;1.00
4813;DHT22;2420;51.202;8.698;2023-04-26T11:08:14;7.80;1.00
4813;DHT22;2420;51.202;8.698;2023-04-26T11:10:41;7.90;1.00
4813;DHT22;2420;51.202;8.698;2023-04-26T11:13:07;7.90;1.00
4813;DHT22;2420;51.202;8.698;2023-04-26T11:15:33;7.70;1.00
4813;DHT22;2420;51.202;8.698;2023-04-26T11:18:04;7.70;1.00
4813;DHT22;2420;51.202;8.698;2023-04-26T11:20:33;7.70;1.00
4813;DHT22;2420;51.202;8.698;2023-04-26T11:23:00;7.50;1.00
4813;DHT22;2420;51.202;8.698;2023-04-26T11:25:26;7.40;1.00
4813;DHT22;2420;51.202;8.698;2023-04-26T11:28:02;7.40;1.00
4813;DHT22;2420;51.202;8.698;2023-04-26T11:30:31;7.30;1.00
4813;DHT22;2420;51.202;8.698;2023-04-26T11:33:01;7.40;1.00
4813;DHT22;2420;51.202;8.698;2023-04-26T11:35:28;7.50;1.00
4813;DHT22;2420;51.202;8.698;2023-04-26T11:37:58;7.50;1.00
4813;DHT22;2420;51.202;8.698;2023-04-26T11:40:27;7.60;1.00
4813;DHT22;2420;51.202;8.698;2023-04-26T11:42:53;7.70;1.00
4813;DHT22;2420;51.202;8.698;2023-04-26T11:45:18;7.70;1.00
4813;DHT22;2420;51.202;8.698;2023-04-26T11:47:45;7.90;1.00
4813;DHT22;2420;51.202;8.698;2023-04-26T11:50:11;8.00;1.00
4813;DHT22;2420;51.202;8.698;2023-04-26T11:52:38;8.00;1.00
4813;DHT22;2420;51.202;8.698;2023-04-26T11:55:05;8.20;1.00
4813;DHT22;2420;51.202;8.698;2023-04-26T11:57:31;8.30;1.00
4813;DHT22;2420;51.202;8.698;2023-04-26T12:00:11;8.40;1.00
4813;DHT22;2420;51.202;8.698;2023-04-26T12:02:38;8.40;1.00
4813;DHT22;2420;51.202;8.698;2023-04-26T12:05:04;8.30;1.00
4813;DHT22;2420;51.202;8.698;2023-04-26T12:07:37;8.10;1.00
4813;DHT22;2420;51.202;8.698;2023-04-26T12:10:16;8.00;1.00
4813;DHT22;2420;51.202;8.698;2023-04-26T12:12:52;7.90;1.00
4813;DHT22;2420;51.202;8.698;2023-04-26T12:15:22;7.90;1.00
4813;DHT22;2420;51.202;8.698;2023-04-26T12:17:53;7.90;1.00
4813;DHT22;2420;51.202;8.698;2023-04-26T12:20:25;7.70;1.00
4813;DHT22;2420;51.202;8.698;2023-04-26T12:22:58;7.60;1.00
4813;DHT22;2420;51.202;8.698;2023-04-26T12:25:28;7.50;1.00
4813;DHT22;2420;51.202;8.698;2023-04-26T12:27:55;7.60;1.00
4813;DHT22;2420;51.202;8.698;2023-04-26T12:30:21;7.60;1.00
4813;DHT22;2420;51.202;8.698;2023-04-26T12:32:47;7.70;1.00
4813;DHT22;2420;51.202;8.698;2023-04-26T12:35:13;7.70;1.00
4813;DHT22;2420;51.202;8.698;2023-04-26T12:37:39;7.80;1.00
4813;DHT22;2420;51.202;8.698;2023-04-26T12:40:05;8.00;1.00
4813;DHT22;2420;51.202;8.698;2023-04-26T12:42:31;8.00;1.00
4813;DHT22;2420;51.202;8.698;2023-04-26T12:44:57;8.10;1.00
4813;DHT22;2420;51.202;8.698;2023-04-26T12:47:23;8.20;1.00
4813;DHT22;2420;51.202;8.698;2023-04-26T12:49:48;8.20;1.00
4813;DHT22;2420;51.202;8.698;2023-04-26T12:52:14;8.40;1.00
4813;DHT22;2420;51.202;8.698;2023-04-26T12:54:40;8.30;1.00
4813;DHT22;2420;51.202;8.698;2023-04-26T12:57:05;8.30;1.00
4813;DHT22;2420;51.202;8.698;2023-04-26T12:59:31;8.40;1.00
4813;DHT22;2420;51.202;8.698;2023-04-26T13:01:56;8.40;1.00
4813;DHT22;2420;51.202;8.698;2023-04-26T13:04:22;8.40;1.00
4813;DHT22;2420;51.202;8.698;2023-04-26T13:06:47;8.20;1.00
4813;DHT22;2420;51.202;8.698;2023-04-26T13:09:13;8.20;1.00
4813;DHT22;2420;51.202;8.698;2023-04-26T13:11:39;8.20;1.00
4813;DHT22;2420;51.202;8.698;2023-04-26T13:14:05;8.00;1.00
4813;DHT22;2420;51.202;8.698;2023-04-26T13:16:34;8.00;1.00
4813;DHT22;2420;51.202;8.698;2023-04-26T13:19:00;7.80;1.00
4813;DHT22;2420;51.202;8.698;2023-04-26T13:21:25;7.80;1.00
4813;DHT22;2420;51.202;8.698;2023-04-26T13:23:51;7.90;1.00
4813;DHT22;2420;51.202;8.698;2023-04-26T13:26:17;8.00;1.00
4813;DHT22;2420;51.202;8.698;2023-04-26T13:28:43;8.10;1.00
4813;DHT22;2420;51.202;8.698;2023-04-26T13:31:08;8.30;1.00
4813;DHT22;2420;51.202;8.698;2023-04-26T13:33:34;8.60;1.00
4813;DHT22;2420;51.202;8.698;2023-04-26T13:36:00;8.70;1.00
4813;DHT22;2420;51.202;8.698;2023-04-26T13:38:25;8.70;1.00
4813;DHT22;2420;51.202;8.698;2023-04-26T13:40:51;8.80;1.00
4813;DHT22;2420;51.202;8.698;2023-04-26T13:43:17;8.80;1.00
4813;DHT22;2420;51.202;8.698;2023-04-26T13:45:42;8.80;1.00
4813;DHT22;2420;51.202;8.698;2023-04-26T13:48:08;8.80;1.00
4813;DHT22;2420;51.202;8.698;2023-04-26T13:50:34;8.80;1.00
4813;DHT22;2420;51.202;8.698;2023-04-26T13:53:00;8.80;1.00
4813;DHT22;2420;51.202;8.698;2023-04-26T13:55:26;9.00;1.00
4813;DHT22;2420;51.202;8.698;2023-04-26T13:57:55;9.20;1.00
4813;DHT22;2420;51.202;8.698;2023-04-26T14:00:21;9.30;1.00
4813;DHT22;2420;51.202;8.698;2023-04-26T14:02:47;9.40;1.00
4813;DHT22;2420;51.202;8.698;2023-04-26T14:05:13;9.30;1.00
4813;DHT22;2420;51.202;8.698;2023-04-26T14:07:39;9.50;1.00
4813;DHT22;2420;51.202;8.698;2023-04-26T14:10:06;9.50;1.00
4813;DHT22;2420;51.202;8.698;2023-04-26T14:12:32;9.30;1.00
4813;DHT22;2420;51.202;8.698;2023-04-26T14:14:58;9.40;1.00
4813;DHT22;2420;51.202;8.698;2023-04-26T14:17:26;9.30;1.00
4813;DHT22;2420;51.202;8.698;2023-04-26T14:19:53;9.30;1.00
4813;DHT22;2420;51.202;8.698;2023-04-26T14:22:19;9.30;1.00
4813;DHT22;2420;51.202;8.698;2023-04-26T14:24:45;9.40;1.00
4813;DHT22;2420;51.202;8.698;2023-04-26T14:27:11;9.40;1.00
4813;DHT22;2420;51.202;8.698;2023-04-26T14:29:39;9.30;1.00
4813;DHT22;2420;51.202;8.698;2023-04-26T14:32:05;9.20;1.00
4813;DHT22;2420;51.202;8.698;2023-04-26T14:34:31;9.20;1.00
4813;DHT22;2420;51.202;8.698;2023-04-26T14:36:56;9.10;1.00
4813;DHT22;2420;51.202;8.698;2023-04-26T14:39:26;9.00;1.00
4813;DHT22;2420;51.202;8.698;2023-04-26T14:41:51;9.10;1.00
4813;DHT22;2420;51.202;8.698;2023-04-26T14:44:17;9.00;1.00
4813;DHT22;2420;51.202;8.698;2023-04-26T14:46:43;9.10;1.00
4813;DHT22;2420;51.202;8.698;2023-04-26T14:49:08;9.10;1.00
4813;DHT22;2420;51.202;8.698;2023-04-26T14:51:34;9.20;1.00
4813;DHT22;2420;51.202;8.698;2023-04-26T14:53:59;9.10;1.00
4813;DHT22;2420;51.202;8.698;2023-04-26T14:56:25;9.10;1.00
4813;DHT22;2420;51.202;8.698;2023-04-26T14:58:51;9.00;1.00
4813;DHT22;2420;51.202;8.698;2023-04-26T15:01:16;9.00;1.00
4813;DHT22;2420;51.202;8.698;2023-04-26T15:03:42;9.00;1.00
4813;DHT22;2420;51.202;8.698;2023-04-26T15:06:08;8.90;1.00
4813;DHT22;2420;51.202;8.698;2023-04-26T15:08:36;9.00;1.00
4813;DHT22;2420;51.202;8.698;2023-04-26T15:11:02;9.10;1.00
4813;DHT22;2420;51.202;8.698;2023-04-26T15:13:28;9.30;1.00
4813;DHT22;2420;51.202;8.698;2023-04-26T15:15:54;9.50;1.00
4813;DHT22;2420;51.202;8.698;2023-04-26T15:18:19;9.40;1.00
4813;DHT22;2420;51.202;8.698;2023-04-26T15:20:45;9.30;1.00
4813;DHT22;2420;51.202;8.698;2023-04-26T15:23:10;9.30;1.00
4813;DHT22;2420;51.202;8.698;2023-04-26T15:25:36;9.40;1.00
4813;DHT22;2420;51.202;8.698;2023-04-26T15:28:02;9.50;1.00
4813;DHT22;2420;51.202;8.698;2023-04-26T15:30:28;9.70;1.00
4813;DHT22;2420;51.202;8.698;2023-04-26T15:32:55;9.50;1.00
4813;DHT22;2420;51.202;8.698;2023-04-26T15:35:21;9.40;1.00
4813;DHT22;2420;51.202;8.698;2023-04-26T15:37:46;9.30;1.00
4813;DHT22;2420;51.202;8.698;2023-04-26T15:40:12;9.20;1.00
4813;DHT22;2420;51.202;8.698;2023-04-26T15:42:38;9.20;1.00
4813;DHT22;2420;51.202;8.698;2023-04-26T15:45:04;9.10;1.00
4813;DHT22;2420;51.202;8.698;2023-04-26T15:47:30;9.10;1.00
4813;DHT22;2420;51.202;8.698;2023-04-26T15:50:00;9.10;1.00
4813;DHT22;2420;51.202;8.698;2023-04-26T15:52:28;9.10;1.00
4813;DHT22;2420;51.202;8.698;2023-04-26T15:54:54;8.90;1.00
4813;DHT22;2420;51.202;8.698;2023-04-26T15:57:19;8.90;1.00
4813;DHT22;2420;51.202;8.698;2023-04-26T15:59:45;8.90;1.00
4813;DHT22;2420;51.202;8.698;2023-04-26T16:02:10;8.90;1.00
4813;DHT22;2420;51.202;8.698;2023-04-26T16:04:39;8.90;1.00
4813;DHT22;2420;51.202;8.698;2023-04-26T16:07:05;8.90;1.00
4813;DHT22;2420;51.202;8.698;2023-04-26T16:09:30;8.90;1.00
4813;DHT22;2420;51.202;8.698;2023-04-26T16:11:56;8.90;1.00
4813;DHT22;2420;51.202;8.698;2023-04-26T16:14:21;8.90;1.00
4813;DHT22;2420;51.202;8.698;2023-04-26T16:16:47;8.90;1.00
4813;DHT22;2420;51.202;8.698;2023-04-26T16:19:13;9.00;1.00
4813;DHT22;2420;51.202;8.698;2023-04-26T16:21:38;9.20;1.00
4813;DHT22;2420;51.202;8.698;2023-04-26T16:24:05;9.20;1.00
4813;DHT22;2420;51.202;8.698;2023-04-26T16:26:36;9.20;1.00
4813;DHT22;2420;51.202;8.698;2023-04-26T16:29:02;9.00;1.00
4813;DHT22;2420;51.202;8.698;2023-04-26T16:31:30;8.80;1.00
4813;DHT22;2420;51.202;8.698;2023-04-26T16:33:57;8.70;1.00
4813;DHT22;2420;51.202;8.698;2023-04-26T16:36:22;8.70;1.00
4813;DHT22;2420;51.202;8.698;2023-04-26T16:38:48;8.60;1.00
4813;DHT22;2420;51.202;8.698;2023-04-26T16:41:13;8.60;1.00
4813;DHT22;2420;51.202;8.698;2023-04-26T16:43:39;8.60;1.00
4813;DHT22;2420;51.202;8.698;2023-04-26T16:46:08;8.60;1.00
4813;DHT22;2420;51.202;8.698;2023-04-26T16:48:35;8.70;1.00
4813;DHT22;2420;51.202;8.698;2023-04-26T16:51:02;8.70;1.00